sensor_id;sensor_type;location;lat;lon;timestamp;P1;durP1;ratioP1;P2;durP2;ratioP2
74894;SDS011;63447;49.446;8.666;2022-12-22T00:00:19;5.30;;;2.00;;
74894;SDS011;63447;49.446;8.666;2022-12-22T00:03:12;5.22;;;1.92;;
74894;SDS011;63447;49.446;8.666;2022-12-22T00:05:58;5.22;;;2.17;;
74894;SDS011;63447;49.446;8.666;2022-12-22T00:08:42;3.97;;;1.90;;
74894;SDS011;63447;49.446;8.666;2022-12-22T00:11:44;5.78;;;2.03;;
74894;SDS011;63447;49.446;8.666;2022-12-22T00:14:49;4.80;;;2.17;;
74894;SDS011;63447;49.446;8.666;2022-12-22T00:17:35;5.93;;;2.20;;
74894;SDS011;63447;49.446;8.666;2022-12-22T00:20:19;5.63;;;2.13;;
74894;SDS011;63447;49.446;8.666;2022-12-22T00:23:03;5.28;;;1.98;;
74894;SDS011;63447;49.446;8.666;2022-12-22T00:25:50;5.97;;;2.55;;
74894;SDS011;63447;49.446;8.666;2022-12-22T00:28:34;4.47;;;1.90;;
74894;SDS011;63447;49.446;8.666;2022-12-22T00:31:18;4.20;;;1.55;;
74894;SDS011;63447;49.446;8.666;2022-12-22T00:34:09;4.10;;;1.77;;
74894;SDS011;63447;49.446;8.666;2022-12-22T00:37:08;4.88;;;1.95;;
74894;SDS011;63447;49.446;8.666;2022-12-22T00:39:56;4.55;;;2.15;;
74894;SDS011;63447;49.446;8.666;2022-12-22T00:42:41;5.00;;;2.40;;
74894;SDS011;63447;49.446;8.666;2022-12-22T00:45:27;6.53;;;2.00;;
74894;SDS011;63447;49.446;8.666;2022-12-22T00:48:19;4.90;;;1.90;;
74894;SDS011;63447;49.446;8.666;2022-12-22T00:51:08;4.15;;;1.90;;
74894;SDS011;63447;49.446;8.666;2022-12-22T00:53:56;4.07;;;2.03;;
74894;SDS011;63447;49.446;8.666;2022-12-22T00:56:40;4.93;;;2.00;;
74894;SDS011;63447;49.446;8.666;2022-12-22T00:59:25;3.78;;;1.63;;
74894;SDS011;63447;49.446;8.666;2022-12-22T01:02:10;4.32;;;2.33;;
74894;SDS011;63447;49.446;8.666;2022-12-22T01:04:55;6.15;;;2.30;;
74894;SDS011;63447;49.446;8.666;2022-12-22T01:07:38;5.22;;;2.30;;
74894;SDS011;63447;49.446;8.666;2022-12-22T01:10:23;5.03;;;1.65;;
74894;SDS011;63447;49.446;8.666;2022-12-22T01:13:10;4.68;;;2.40;;
74894;SDS011;63447;49.446;8.666;2022-12-22T01:15:55;5.20;;;2.40;;
74894;SDS011;63447;49.446;8.666;2022-12-22T01:18:39;6.57;;;2.40;;
74894;SDS011;63447;49.446;8.666;2022-12-22T01:21:22;4.80;;;2.22;;
74894;SDS011;63447;49.446;8.666;2022-12-22T01:24:11;4.97;;;2.50;;
74894;SDS011;63447;49.446;8.666;2022-12-22T01:26:56;4.68;;;2.35;;
74894;SDS011;63447;49.446;8.666;2022-12-22T01:29:40;4.97;;;2.28;;
74894;SDS011;63447;49.446;8.666;2022-12-22T01:32:24;5.72;;;2.70;;
74894;SDS011;63447;49.446;8.666;2022-12-22T01:35:30;5.15;;;2.10;;
74894;SDS011;63447;49.446;8.666;2022-12-22T01:38:16;5.47;;;2.20;;
74894;SDS011;63447;49.446;8.666;2022-12-22T01:41:00;4.47;;;2.20;;
74894;SDS011;63447;49.446;8.666;2022-12-22T01:43:46;6.25;;;2.42;;
74894;SDS011;63447;49.446;8.666;2022-12-22T01:46:32;5.38;;;2.17;;
74894;SDS011;63447;49.446;8.666;2022-12-22T01:52:12;4.22;;;2.35;;
74894;SDS011;63447;49.446;8.666;2022-12-22T01:55:03;5.25;;;2.40;;
74894;SDS011;63447;49.446;8.666;2022-12-22T01:57:51;4.40;;;2.00;;
74894;SDS011;63447;49.446;8.666;2022-12-22T02:03:22;4.50;;;2.17;;
74894;SDS011;63447;49.446;8.666;2022-12-22T02:09:08;5.00;;;2.20;;
74894;SDS011;63447;49.446;8.666;2022-12-22T02:12:12;4.28;;;2.10;;
74894;SDS011;63447;49.446;8.666;2022-12-22T02:18:09;5.40;;;2.33;;
74894;SDS011;63447;49.446;8.666;2022-12-22T02:21:03;5.47;;;2.10;;
74894;SDS011;63447;49.446;8.666;2022-12-22T02:26:57;4.97;;;2.20;;
74894;SDS011;63447;49.446;8.666;2022-12-22T02:29:50;4.85;;;2.38;;
74894;SDS011;63447;49.446;8.666;2022-12-22T02:32:38;4.68;;;2.33;;
74894;SDS011;63447;49.446;8.666;2022-12-22T02:35:25;4.32;;;2.13;;
74894;SDS011;63447;49.446;8.666;2022-12-22T02:51:05;4.80;;;2.10;;
74894;SDS011;63447;49.446;8.666;2022-12-22T02:53:51;3.90;;;1.90;;
74894;SDS011;63447;49.446;8.666;2022-12-22T02:56:42;3.95;;;1.45;;
74894;SDS011;63447;49.446;8.666;2022-12-22T02:59:26;5.05;;;2.30;;
74894;SDS011;63447;49.446;8.666;2022-12-22T03:02:11;3.88;;;1.83;;
74894;SDS011;63447;49.446;8.666;2022-12-22T03:04:56;5.47;;;1.70;;
74894;SDS011;63447;49.446;8.666;2022-12-22T03:07:42;4.05;;;1.45;;
74894;SDS011;63447;49.446;8.666;2022-12-22T03:10:26;3.67;;;1.77;;
74894;SDS011;63447;49.446;8.666;2022-12-22T03:13:10;4.32;;;1.80;;
74894;SDS011;63447;49.446;8.666;2022-12-22T03:15:54;5.15;;;1.80;;
74894;SDS011;63447;49.446;8.666;2022-12-22T03:18:38;5.38;;;1.40;;
74894;SDS011;63447;49.446;8.666;2022-12-22T03:21:22;5.55;;;1.67;;
74894;SDS011;63447;49.446;8.666;2022-12-22T03:24:06;6.03;;;1.40;;
74894;SDS011;63447;49.446;8.666;2022-12-22T03:26:52;6.60;;;1.70;;
74894;SDS011;63447;49.446;8.666;2022-12-22T03:29:18;4.50;;;1.63;;
74894;SDS011;63447;49.446;8.666;2022-12-22T03:31:48;5.15;;;1.88;;
74894;SDS011;63447;49.446;8.666;2022-12-22T03:34:13;4.18;;;1.52;;
74894;SDS011;63447;49.446;8.666;2022-12-22T03:36:39;4.22;;;1.80;;
74894;SDS011;63447;49.446;8.666;2022-12-22T03:39:04;4.20;;;2.03;;
74894;SDS011;63447;49.446;8.666;2022-12-22T03:41:32;6.13;;;2.05;;
74894;SDS011;63447;49.446;8.666;2022-12-22T03:44:16;4.43;;;1.60;;
74894;SDS011;63447;49.446;8.666;2022-12-22T03:47:02;7.63;;;1.88;;
74894;SDS011;63447;49.446;8.666;2022-12-22T03:49:28;3.90;;;1.80;;
74894;SDS011;63447;49.446;8.666;2022-12-22T03:51:53;4.53;;;1.45;;
74894;SDS011;63447;49.446;8.666;2022-12-22T03:54:19;6.32;;;2.50;;
74894;SDS011;63447;49.446;8.666;2022-12-22T03:56:46;3.47;;;1.30;;
74894;SDS011;63447;49.446;8.666;2022-12-22T03:59:12;4.15;;;1.88;;
74894;SDS011;63447;49.446;8.666;2022-12-22T04:01:42;6.78;;;1.80;;
74894;SDS011;63447;49.446;8.666;2022-12-22T04:04:09;4.90;;;1.60;;
74894;SDS011;63447;49.446;8.666;2022-12-22T04:06:35;5.30;;;1.63;;
74894;SDS011;63447;49.446;8.666;2022-12-22T04:09:01;4.13;;;1.67;;
74894;SDS011;63447;49.446;8.666;2022-12-22T04:11:26;4.63;;;1.85;;
74894;SDS011;63447;49.446;8.666;2022-12-22T04:14:13;3.50;;;1.50;;
74894;SDS011;63447;49.446;8.666;2022-12-22T04:16:38;4.53;;;1.77;;
74894;SDS011;63447;49.446;8.666;2022-12-22T04:19:03;3.70;;;1.80;;
74894;SDS011;63447;49.446;8.666;2022-12-22T04:21:32;3.88;;;1.67;;
74894;SDS011;63447;49.446;8.666;2022-12-22T04:24:00;4.30;;;1.65;;
74894;SDS011;63447;49.446;8.666;2022-12-22T04:26:25;4.85;;;1.80;;
74894;SDS011;63447;49.446;8.666;2022-12-22T04:28:53;3.55;;;1.45;;
74894;SDS011;63447;49.446;8.666;2022-12-22T04:31:21;5.88;;;1.70;;
74894;SDS011;63447;49.446;8.666;2022-12-22T04:33:47;4.00;;;1.48;;
74894;SDS011;63447;49.446;8.666;2022-12-22T04:36:16;4.38;;;1.40;;
74894;SDS011;63447;49.446;8.666;2022-12-22T04:38:46;5.20;;;1.40;;
74894;SDS011;63447;49.446;8.666;2022-12-22T04:41:11;4.15;;;1.40;;
74894;SDS011;63447;49.446;8.666;2022-12-22T04:43:39;4.80;;;1.70;;
74894;SDS011;63447;49.446;8.666;2022-12-22T04:46:09;5.10;;;1.90;;
74894;SDS011;63447;49.446;8.666;2022-12-22T04:48:39;4.65;;;1.40;;
74894;SDS011;63447;49.446;8.666;2022-12-22T04:51:05;5.43;;;2.28;;
74894;SDS011;63447;49.446;8.666;2022-12-22T04:53:33;4.63;;;1.40;;
74894;SDS011;63447;49.446;8.666;2022-12-22T04:55:59;5.20;;;1.98;;
74894;SDS011;63447;49.446;8.666;2022-12-22T04:58:26;4.75;;;1.60;;
74894;SDS011;63447;49.446;8.666;2022-12-22T05:00:55;4.68;;;1.50;;
74894;SDS011;63447;49.446;8.666;2022-12-22T05:03:20;6.28;;;1.55;;
74894;SDS011;63447;49.446;8.666;2022-12-22T05:05:51;5.88;;;2.10;;
74894;SDS011;63447;49.446;8.666;2022-12-22T05:08:16;5.85;;;1.40;;
74894;SDS011;63447;49.446;8.666;2022-12-22T05:10:41;6.37;;;1.67;;
74894;SDS011;63447;49.446;8.666;2022-12-22T05:13:07;5.23;;;1.47;;
74894;SDS011;63447;49.446;8.666;2022-12-22T05:15:35;5.60;;;1.67;;
74894;SDS011;63447;49.446;8.666;2022-12-22T05:18:03;5.45;;;1.55;;
74894;SDS011;63447;49.446;8.666;2022-12-22T05:20:31;4.07;;;1.58;;
74894;SDS011;63447;49.446;8.666;2022-12-22T05:22:56;4.68;;;1.80;;
74894;SDS011;63447;49.446;8.666;2022-12-22T05:25:23;4.57;;;1.40;;
74894;SDS011;63447;49.446;8.666;2022-12-22T05:27:58;3.88;;;1.40;;
74894;SDS011;63447;49.446;8.666;2022-12-22T05:30:23;5.32;;;1.70;;
74894;SDS011;63447;49.446;8.666;2022-12-22T05:32:49;5.25;;;1.75;;
74894;SDS011;63447;49.446;8.666;2022-12-22T05:35:14;4.95;;;1.50;;
74894;SDS011;63447;49.446;8.666;2022-12-22T05:37:40;4.95;;;1.50;;
74894;SDS011;63447;49.446;8.666;2022-12-22T05:40:06;5.55;;;1.75;;
74894;SDS011;63447;49.446;8.666;2022-12-22T05:42:32;5.38;;;1.60;;
74894;SDS011;63447;49.446;8.666;2022-12-22T05:45:19;4.82;;;1.67;;
74894;SDS011;63447;49.446;8.666;2022-12-22T05:47:48;5.43;;;1.60;;
74894;SDS011;63447;49.446;8.666;2022-12-22T05:50:16;5.03;;;1.60;;
74894;SDS011;63447;49.446;8.666;2022-12-22T05:52:51;6.15;;;1.50;;
74894;SDS011;63447;49.446;8.666;2022-12-22T05:55:20;6.78;;;2.00;;
74894;SDS011;63447;49.446;8.666;2022-12-22T05:57:45;6.43;;;1.50;;
74894;SDS011;63447;49.446;8.666;2022-12-22T06:00:12;7.67;;;1.40;;
74894;SDS011;63447;49.446;8.666;2022-12-22T06:02:39;5.55;;;1.40;;
74894;SDS011;63447;49.446;8.666;2022-12-22T06:05:07;5.38;;;1.30;;
74894;SDS011;63447;49.446;8.666;2022-12-22T06:07:33;6.55;;;1.88;;
74894;SDS011;63447;49.446;8.666;2022-12-22T06:09:58;4.47;;;1.42;;
74894;SDS011;63447;49.446;8.666;2022-12-22T06:12:26;4.85;;;1.30;;
74894;SDS011;63447;49.446;8.666;2022-12-22T06:14:54;5.33;;;1.37;;
74894;SDS011;63447;49.446;8.666;2022-12-22T06:17:21;7.53;;;1.75;;
74894;SDS011;63447;49.446;8.666;2022-12-22T06:19:47;5.35;;;1.40;;
74894;SDS011;63447;49.446;8.666;2022-12-22T06:22:12;4.93;;;1.37;;
74894;SDS011;63447;49.446;8.666;2022-12-22T06:27:18;4.82;;;1.77;;
74894;SDS011;63447;49.446;8.666;2022-12-22T06:29:46;7.18;;;1.85;;
74894;SDS011;63447;49.446;8.666;2022-12-22T06:32:18;6.38;;;1.25;;
74894;SDS011;63447;49.446;8.666;2022-12-22T06:34:44;4.57;;;1.40;;
74894;SDS011;63447;49.446;8.666;2022-12-22T06:37:11;6.35;;;1.65;;
74894;SDS011;63447;49.446;8.666;2022-12-22T06:39:39;6.60;;;1.40;;
74894;SDS011;63447;49.446;8.666;2022-12-22T06:42:04;8.20;;;1.90;;
74894;SDS011;63447;49.446;8.666;2022-12-22T06:44:48;5.05;;;1.52;;
74894;SDS011;63447;49.446;8.666;2022-12-22T06:47:18;7.50;;;1.60;;
74894;SDS011;63447;49.446;8.666;2022-12-22T06:49:44;6.40;;;1.77;;
74894;SDS011;63447;49.446;8.666;2022-12-22T06:52:09;6.47;;;1.60;;
74894;SDS011;63447;49.446;8.666;2022-12-22T06:54:34;4.93;;;1.30;;
74894;SDS011;63447;49.446;8.666;2022-12-22T06:57:00;4.60;;;1.00;;
74894;SDS011;63447;49.446;8.666;2022-12-22T06:59:30;7.05;;;1.17;;
74894;SDS011;63447;49.446;8.666;2022-12-22T07:01:57;7.15;;;2.22;;
74894;SDS011;63447;49.446;8.666;2022-12-22T07:04:27;8.95;;;1.90;;
74894;SDS011;63447;49.446;8.666;2022-12-22T07:06:58;4.97;;;1.17;;
74894;SDS011;63447;49.446;8.666;2022-12-22T07:09:23;6.25;;;1.50;;
74894;SDS011;63447;49.446;8.666;2022-12-22T07:11:49;6.80;;;1.60;;
74894;SDS011;63447;49.446;8.666;2022-12-22T07:14:14;5.97;;;1.40;;
74894;SDS011;63447;49.446;8.666;2022-12-22T07:16:41;7.28;;;1.50;;
74894;SDS011;63447;49.446;8.666;2022-12-22T07:19:07;5.20;;;1.67;;
74894;SDS011;63447;49.446;8.666;2022-12-22T07:21:32;5.95;;;1.58;;
74894;SDS011;63447;49.446;8.666;2022-12-22T07:24:00;5.38;;;1.30;;
74894;SDS011;63447;49.446;8.666;2022-12-22T07:26:33;5.95;;;1.55;;
74894;SDS011;63447;49.446;8.666;2022-12-22T07:28:58;5.45;;;1.30;;
74894;SDS011;63447;49.446;8.666;2022-12-22T07:31:26;4.75;;;1.50;;
74894;SDS011;63447;49.446;8.666;2022-12-22T07:34:01;4.65;;;1.40;;
74894;SDS011;63447;49.446;8.666;2022-12-22T07:36:29;6.22;;;1.38;;
74894;SDS011;63447;49.446;8.666;2022-12-22T07:39:01;8.13;;;1.50;;
74894;SDS011;63447;49.446;8.666;2022-12-22T07:41:27;8.30;;;1.50;;
74894;SDS011;63447;49.446;8.666;2022-12-22T07:44:11;14.18;;;5.95;;
74894;SDS011;63447;49.446;8.666;2022-12-22T07:46:37;8.48;;;2.45;;
74894;SDS011;63447;49.446;8.666;2022-12-22T07:49:04;5.63;;;1.67;;
74894;SDS011;63447;49.446;8.666;2022-12-22T07:51:49;7.50;;;1.58;;
74894;SDS011;63447;49.446;8.666;2022-12-22T07:54:17;7.90;;;1.92;;
74894;SDS011;63447;49.446;8.666;2022-12-22T07:56:50;8.75;;;2.03;;
74894;SDS011;63447;49.446;8.666;2022-12-22T07:59:22;7.70;;;1.73;;
74894;SDS011;63447;49.446;8.666;2022-12-22T08:01:52;9.13;;;1.85;;
74894;SDS011;63447;49.446;8.666;2022-12-22T08:04:18;6.28;;;1.42;;
74894;SDS011;63447;49.446;8.666;2022-12-22T08:06:43;5.97;;;1.40;;
74894;SDS011;63447;49.446;8.666;2022-12-22T08:09:12;6.57;;;1.65;;
74894;SDS011;63447;49.446;8.666;2022-12-22T08:11:49;5.70;;;1.92;;
74894;SDS011;63447;49.446;8.666;2022-12-22T08:14:16;6.60;;;1.73;;
74894;SDS011;63447;49.446;8.666;2022-12-22T08:16:41;9.93;;;1.40;;
74894;SDS011;63447;49.446;8.666;2022-12-22T08:19:07;7.40;;;1.50;;
74894;SDS011;63447;49.446;8.666;2022-12-22T08:21:35;8.43;;;1.75;;
74894;SDS011;63447;49.446;8.666;2022-12-22T08:24:07;5.70;;;1.45;;
74894;SDS011;63447;49.446;8.666;2022-12-22T08:26:37;9.50;;;1.90;;
74894;SDS011;63447;49.446;8.666;2022-12-22T08:29:11;8.75;;;2.22;;
74894;SDS011;63447;49.446;8.666;2022-12-22T08:31:40;12.70;;;2.10;;
74894;SDS011;63447;49.446;8.666;2022-12-22T08:34:26;6.60;;;1.65;;
74894;SDS011;63447;49.446;8.666;2022-12-22T08:36:55;8.10;;;1.80;;
74894;SDS011;63447;49.446;8.666;2022-12-22T08:39:27;9.60;;;1.60;;
74894;SDS011;63447;49.446;8.666;2022-12-22T08:41:59;11.48;;;1.73;;
74894;SDS011;63447;49.446;8.666;2022-12-22T08:44:36;13.25;;;2.30;;
74894;SDS011;63447;49.446;8.666;2022-12-22T08:47:07;9.48;;;1.98;;
74894;SDS011;63447;49.446;8.666;2022-12-22T08:49:35;12.25;;;1.70;;
74894;SDS011;63447;49.446;8.666;2022-12-22T08:52:00;8.70;;;2.08;;
74894;SDS011;63447;49.446;8.666;2022-12-22T08:54:31;10.77;;;2.22;;
74894;SDS011;63447;49.446;8.666;2022-12-22T08:57:04;7.88;;;2.05;;
74894;SDS011;63447;49.446;8.666;2022-12-22T08:59:32;12.45;;;2.05;;
74894;SDS011;63447;49.446;8.666;2022-12-22T09:02:00;9.75;;;1.92;;
74894;SDS011;63447;49.446;8.666;2022-12-22T09:04:29;9.95;;;1.80;;
74894;SDS011;63447;49.446;8.666;2022-12-22T09:06:56;8.48;;;2.05;;
74894;SDS011;63447;49.446;8.666;2022-12-22T09:09:22;10.23;;;2.30;;
74894;SDS011;63447;49.446;8.666;2022-12-22T09:11:47;12.32;;;2.05;;
74894;SDS011;63447;49.446;8.666;2022-12-22T09:14:13;11.73;;;2.00;;
74894;SDS011;63447;49.446;8.666;2022-12-22T09:16:38;12.63;;;2.60;;
74894;SDS011;63447;49.446;8.666;2022-12-22T09:19:04;11.00;;;2.30;;
74894;SDS011;63447;49.446;8.666;2022-12-22T09:21:33;8.38;;;2.58;;
74894;SDS011;63447;49.446;8.666;2022-12-22T09:23:59;10.38;;;1.83;;
74894;SDS011;63447;49.446;8.666;2022-12-22T09:26:25;7.05;;;1.75;;
74894;SDS011;63447;49.446;8.666;2022-12-22T09:28:52;10.82;;;2.00;;
74894;SDS011;63447;49.446;8.666;2022-12-22T09:31:19;8.02;;;1.42;;
74894;SDS011;63447;49.446;8.666;2022-12-22T09:33:46;8.32;;;2.67;;
74894;SDS011;63447;49.446;8.666;2022-12-22T09:36:13;8.57;;;2.03;;
74894;SDS011;63447;49.446;8.666;2022-12-22T09:38:41;9.55;;;2.22;;
74894;SDS011;63447;49.446;8.666;2022-12-22T09:41:09;11.10;;;1.90;;
74894;SDS011;63447;49.446;8.666;2022-12-22T09:43:41;9.70;;;1.83;;
74894;SDS011;63447;49.446;8.666;2022-12-22T09:46:21;6.10;;;1.45;;
74894;SDS011;63447;49.446;8.666;2022-12-22T09:48:49;9.25;;;1.60;;
74894;SDS011;63447;49.446;8.666;2022-12-22T09:51:16;6.40;;;1.48;;
74894;SDS011;63447;49.446;8.666;2022-12-22T09:53:43;8.98;;;2.00;;
74894;SDS011;63447;49.446;8.666;2022-12-22T09:56:14;6.28;;;1.42;;
74894;SDS011;63447;49.446;8.666;2022-12-22T09:58:41;5.45;;;1.40;;
74894;SDS011;63447;49.446;8.666;2022-12-22T10:06:42;7.85;;;1.80;;
74894;SDS011;63447;49.446;8.666;2022-12-22T10:09:25;8.43;;;1.48;;
74894;SDS011;63447;49.446;8.666;2022-12-22T10:11:57;7.03;;;1.30;;
74894;SDS011;63447;49.446;8.666;2022-12-22T10:14:32;6.50;;;1.30;;
74894;SDS011;63447;49.446;8.666;2022-12-22T10:17:17;9.40;;;1.60;;
74894;SDS011;63447;49.446;8.666;2022-12-22T10:19:51;6.15;;;1.50;;
74894;SDS011;63447;49.446;8.666;2022-12-22T10:24:48;6.07;;;1.70;;
74894;SDS011;63447;49.446;8.666;2022-12-22T10:27:20;4.72;;;1.35;;
74894;SDS011;63447;49.446;8.666;2022-12-22T10:29:53;5.97;;;1.65;;
74894;SDS011;63447;49.446;8.666;2022-12-22T10:32:19;5.55;;;1.35;;
74894;SDS011;63447;49.446;8.666;2022-12-22T10:35:03;4.15;;;1.10;;
74894;SDS011;63447;49.446;8.666;2022-12-22T10:37:31;6.50;;;1.65;;
74894;SDS011;63447;49.446;8.666;2022-12-22T10:40:14;4.72;;;1.20;;
74894;SDS011;63447;49.446;8.666;2022-12-22T10:42:52;9.27;;;3.13;;
74894;SDS011;63447;49.446;8.666;2022-12-22T10:45:23;4.70;;;1.65;;
74894;SDS011;63447;49.446;8.666;2022-12-22T10:47:53;4.35;;;1.15;;
74894;SDS011;63447;49.446;8.666;2022-12-22T10:50:22;6.80;;;1.67;;
74894;SDS011;63447;49.446;8.666;2022-12-22T10:52:51;6.30;;;1.40;;
74894;SDS011;63447;49.446;8.666;2022-12-22T10:55:23;3.95;;;1.10;;
74894;SDS011;63447;49.446;8.666;2022-12-22T10:57:50;4.13;;;1.00;;
74894;SDS011;63447;49.446;8.666;2022-12-22T11:00:23;4.38;;;1.00;;
74894;SDS011;63447;49.446;8.666;2022-12-22T11:02:53;3.35;;;0.60;;
74894;SDS011;63447;49.446;8.666;2022-12-22T11:05:20;3.50;;;1.00;;
74894;SDS011;63447;49.446;8.666;2022-12-22T11:07:48;3.55;;;0.80;;
74894;SDS011;63447;49.446;8.666;2022-12-22T11:21:59;2.25;;;0.80;;
74894;SDS011;63447;49.446;8.666;2022-12-22T11:24:35;2.88;;;0.90;;
74894;SDS011;63447;49.446;8.666;2022-12-22T11:35:57;4.20;;;0.90;;
74894;SDS011;63447;49.446;8.666;2022-12-22T11:38:35;2.13;;;0.60;;
74894;SDS011;63447;49.446;8.666;2022-12-22T11:44:29;2.00;;;0.40;;
74894;SDS011;63447;49.446;8.666;2022-12-22T11:47:10;4.53;;;1.55;;
74894;SDS011;63447;49.446;8.666;2022-12-22T11:55:28;2.63;;;0.68;;
74894;SDS011;63447;49.446;8.666;2022-12-22T12:00:54;2.42;;;0.73;;
74894;SDS011;63447;49.446;8.666;2022-12-22T12:25:46;2.45;;;0.70;;
74894;SDS011;63447;49.446;8.666;2022-12-22T12:31:15;2.50;;;0.90;;
74894;SDS011;63447;49.446;8.666;2022-12-22T12:33:45;2.28;;;0.70;;
74894;SDS011;63447;49.446;8.666;2022-12-22T12:36:23;2.65;;;0.88;;
74894;SDS011;63447;49.446;8.666;2022-12-22T12:44:35;2.65;;;0.70;;
74894;SDS011;63447;49.446;8.666;2022-12-22T12:58:02;2.67;;;0.90;;
74894;SDS011;63447;49.446;8.666;2022-12-22T13:03:04;3.40;;;1.40;;
74894;SDS011;63447;49.446;8.666;2022-12-22T13:23:43;1.88;;;0.60;;
74894;SDS011;63447;49.446;8.666;2022-12-22T13:26:14;2.08;;;0.60;;
74894;SDS011;63447;49.446;8.666;2022-12-22T13:28:45;1.55;;;0.30;;
74894;SDS011;63447;49.446;8.666;2022-12-22T13:31:17;1.80;;;0.60;;
74894;SDS011;63447;49.446;8.666;2022-12-22T13:33:44;1.85;;;0.60;;
74894;SDS011;63447;49.446;8.666;2022-12-22T13:36:21;2.10;;;0.77;;
74894;SDS011;63447;49.446;8.666;2022-12-22T13:39:02;3.40;;;0.93;;
74894;SDS011;63447;49.446;8.666;2022-12-22T13:41:35;3.20;;;0.70;;
74894;SDS011;63447;49.446;8.666;2022-12-22T13:44:06;3.40;;;0.75;;
74894;SDS011;63447;49.446;8.666;2022-12-22T13:46:40;2.92;;;0.80;;
74894;SDS011;63447;49.446;8.666;2022-12-22T13:49:07;2.33;;;0.70;;
74894;SDS011;63447;49.446;8.666;2022-12-22T13:51:36;2.40;;;0.63;;
74894;SDS011;63447;49.446;8.666;2022-12-22T13:56:34;2.00;;;0.60;;
74894;SDS011;63447;49.446;8.666;2022-12-22T13:59:02;1.90;;;0.77;;
74894;SDS011;63447;49.446;8.666;2022-12-22T14:01:30;2.88;;;0.93;;
74894;SDS011;63447;49.446;8.666;2022-12-22T14:04:01;2.92;;;0.98;;
74894;SDS011;63447;49.446;8.666;2022-12-22T14:06:33;3.65;;;1.00;;
74894;SDS011;63447;49.446;8.666;2022-12-22T14:09:09;3.08;;;0.95;;
74894;SDS011;63447;49.446;8.666;2022-12-22T14:11:40;4.55;;;1.05;;
74894;SDS011;63447;49.446;8.666;2022-12-22T14:14:07;3.28;;;1.10;;
74894;SDS011;63447;49.446;8.666;2022-12-22T14:16:34;3.75;;;1.13;;
74894;SDS011;63447;49.446;8.666;2022-12-22T14:19:06;4.35;;;1.27;;
74894;SDS011;63447;49.446;8.666;2022-12-22T14:21:32;3.33;;;1.00;;
74894;SDS011;63447;49.446;8.666;2022-12-22T14:23:59;5.13;;;1.17;;
74894;SDS011;63447;49.446;8.666;2022-12-22T14:26:27;3.53;;;1.08;;
74894;SDS011;63447;49.446;8.666;2022-12-22T14:28:58;4.43;;;1.20;;
74894;SDS011;63447;49.446;8.666;2022-12-22T14:31:26;4.78;;;1.23;;
74894;SDS011;63447;49.446;8.666;2022-12-22T14:33:57;3.45;;;0.90;;
74894;SDS011;63447;49.446;8.666;2022-12-22T14:36:36;5.22;;;1.10;;
74894;SDS011;63447;49.446;8.666;2022-12-22T14:39:07;5.75;;;1.20;;
74894;SDS011;63447;49.446;8.666;2022-12-22T14:44:10;5.45;;;1.63;;
74894;SDS011;63447;49.446;8.666;2022-12-22T14:46:37;4.90;;;1.45;;
74894;SDS011;63447;49.446;8.666;2022-12-22T14:49:03;3.80;;;1.08;;
74894;SDS011;63447;49.446;8.666;2022-12-22T14:51:30;4.32;;;1.00;;
74894;SDS011;63447;49.446;8.666;2022-12-22T14:53:57;5.53;;;1.48;;
74894;SDS011;63447;49.446;8.666;2022-12-22T14:56:24;3.80;;;1.20;;
74894;SDS011;63447;49.446;8.666;2022-12-22T14:59:06;4.88;;;1.48;;
74894;SDS011;63447;49.446;8.666;2022-12-22T15:01:38;4.93;;;1.25;;
74894;SDS011;63447;49.446;8.666;2022-12-22T15:11:28;5.28;;;1.58;;
74894;SDS011;63447;49.446;8.666;2022-12-22T15:13:57;7.15;;;2.13;;
74894;SDS011;63447;49.446;8.666;2022-12-22T15:16:22;6.68;;;2.00;;
74894;SDS011;63447;49.446;8.666;2022-12-22T15:18:49;4.43;;;1.58;;
74894;SDS011;63447;49.446;8.666;2022-12-22T15:21:21;6.90;;;2.90;;
74894;SDS011;63447;49.446;8.666;2022-12-22T15:23:47;5.40;;;1.83;;
74894;SDS011;63447;49.446;8.666;2022-12-22T15:26:12;4.60;;;1.58;;
74894;SDS011;63447;49.446;8.666;2022-12-22T15:28:38;15.20;;;8.18;;
74894;SDS011;63447;49.446;8.666;2022-12-22T15:31:08;8.88;;;3.25;;
74894;SDS011;63447;49.446;8.666;2022-12-22T15:33:38;9.00;;;2.28;;
74894;SDS011;63447;49.446;8.666;2022-12-22T15:36:04;6.57;;;1.75;;
74894;SDS011;63447;49.446;8.666;2022-12-22T15:38:32;3.83;;;1.20;;
74894;SDS011;63447;49.446;8.666;2022-12-22T15:41:02;5.78;;;1.42;;
74894;SDS011;63447;49.446;8.666;2022-12-22T15:43:30;6.20;;;2.10;;
74894;SDS011;63447;49.446;8.666;2022-12-22T15:45:59;5.13;;;1.17;;
74894;SDS011;63447;49.446;8.666;2022-12-22T15:48:27;6.00;;;1.52;;
74894;SDS011;63447;49.446;8.666;2022-12-22T15:50:57;4.97;;;1.33;;
74894;SDS011;63447;49.446;8.666;2022-12-22T15:53:26;8.20;;;2.00;;
74894;SDS011;63447;49.446;8.666;2022-12-22T15:55:53;8.23;;;2.05;;
74894;SDS011;63447;49.446;8.666;2022-12-22T15:58:20;5.63;;;1.13;;
74894;SDS011;63447;49.446;8.666;2022-12-22T16:00:51;6.72;;;1.65;;
74894;SDS011;63447;49.446;8.666;2022-12-22T16:03:19;6.53;;;1.75;;
74894;SDS011;63447;49.446;8.666;2022-12-22T16:05:44;8.57;;;2.10;;
74894;SDS011;63447;49.446;8.666;2022-12-22T16:08:15;9.63;;;2.22;;
74894;SDS011;63447;49.446;8.666;2022-12-22T16:10:45;8.23;;;1.75;;
74894;SDS011;63447;49.446;8.666;2022-12-22T16:13:15;9.93;;;2.10;;
74894;SDS011;63447;49.446;8.666;2022-12-22T16:15:45;11.65;;;2.25;;
74894;SDS011;63447;49.446;8.666;2022-12-22T16:18:11;12.13;;;2.63;;
74894;SDS011;63447;49.446;8.666;2022-12-22T16:20:38;11.13;;;3.25;;
74894;SDS011;63447;49.446;8.666;2022-12-22T16:23:06;8.55;;;3.35;;
74894;SDS011;63447;49.446;8.666;2022-12-22T16:25:37;14.40;;;3.90;;
74894;SDS011;63447;49.446;8.666;2022-12-22T16:28:06;15.25;;;3.90;;
74894;SDS011;63447;49.446;8.666;2022-12-22T16:30:36;18.52;;;4.15;;
74894;SDS011;63447;49.446;8.666;2022-12-22T16:33:05;12.68;;;3.20;;
74894;SDS011;63447;49.446;8.666;2022-12-22T16:35:32;16.27;;;3.30;;
74894;SDS011;63447;49.446;8.666;2022-12-22T16:38:00;13.40;;;4.35;;
74894;SDS011;63447;49.446;8.666;2022-12-22T16:40:28;14.98;;;4.75;;
74894;SDS011;63447;49.446;8.666;2022-12-22T16:45:24;20.02;;;4.05;;
74894;SDS011;63447;49.446;8.666;2022-12-22T16:47:52;14.80;;;4.00;;
74894;SDS011;63447;49.446;8.666;2022-12-22T16:50:24;15.95;;;4.35;;
74894;SDS011;63447;49.446;8.666;2022-12-22T16:52:57;19.75;;;4.30;;
74894;SDS011;63447;49.446;8.666;2022-12-22T16:55:26;20.73;;;4.43;;
74894;SDS011;63447;49.446;8.666;2022-12-22T16:57:59;20.90;;;4.10;;
74894;SDS011;63447;49.446;8.666;2022-12-22T17:00:25;23.02;;;4.30;;
74894;SDS011;63447;49.446;8.666;2022-12-22T17:02:57;22.30;;;4.47;;
74894;SDS011;63447;49.446;8.666;2022-12-22T17:05:47;18.20;;;3.80;;
74894;SDS011;63447;49.446;8.666;2022-12-22T17:08:27;23.48;;;5.32;;
74894;SDS011;63447;49.446;8.666;2022-12-22T17:10:56;15.95;;;3.42;;
74894;SDS011;63447;49.446;8.666;2022-12-22T17:13:24;17.92;;;3.72;;
74894;SDS011;63447;49.446;8.666;2022-12-22T17:15:59;21.00;;;4.68;;
74894;SDS011;63447;49.446;8.666;2022-12-22T17:18:26;16.20;;;4.07;;
74894;SDS011;63447;49.446;8.666;2022-12-22T17:20:54;21.83;;;4.63;;
74894;SDS011;63447;49.446;8.666;2022-12-22T17:23:32;22.23;;;4.25;;
74894;SDS011;63447;49.446;8.666;2022-12-22T17:26:01;23.40;;;4.90;;
74894;SDS011;63447;49.446;8.666;2022-12-22T17:28:32;19.15;;;3.88;;
74894;SDS011;63447;49.446;8.666;2022-12-22T17:31:01;24.05;;;4.18;;
74894;SDS011;63447;49.446;8.666;2022-12-22T17:33:28;23.77;;;3.90;;
74894;SDS011;63447;49.446;8.666;2022-12-22T17:35:57;19.52;;;4.28;;
74894;SDS011;63447;49.446;8.666;2022-12-22T17:38:26;23.65;;;4.22;;
74894;SDS011;63447;49.446;8.666;2022-12-22T17:40:56;17.73;;;2.97;;
74894;SDS011;63447;49.446;8.666;2022-12-22T17:43:29;24.75;;;5.00;;
74894;SDS011;63447;49.446;8.666;2022-12-22T17:45:59;20.63;;;3.90;;